createdAt,value
2022-10-13T00:00:28.652Z,0.00
2022-10-13T00:01:28.657Z,0.00
2022-10-13T00:02:28.637Z,0.00
2022-10-13T00:03:28.652Z,0.00
2022-10-13T00:04:28.656Z,0.00
2022-10-13T00:05:28.665Z,0.00
2022-10-13T00:06:28.665Z,0.00
2022-10-13T00:07:28.676Z,0.00
2022-10-13T00:08:28.675Z,0.00
2022-10-13T00:09:28.683Z,0.00
2022-10-13T00:10:28.695Z,0.00
2022-10-13T00:11:28.702Z,0.00
2022-10-13T00:12:28.710Z,0.00
2022-10-13T00:13:28.707Z,0.00
2022-10-13T00:14:28.720Z,0.00
2022-10-13T00:15:28.720Z,0.00
2022-10-13T00:16:28.748Z,0.00
2022-10-13T00:17:28.731Z,0.00
2022-10-13T00:18:28.747Z,0.00
2022-10-13T00:19:28.751Z,0.00
2022-10-13T00:20:28.751Z,0.00
2022-10-13T00:21:28.758Z,0.00
2022-10-13T00:22:28.771Z,0.00
2022-10-13T00:23:28.768Z,0.00
2022-10-13T00:24:28.785Z,0.00
2022-10-13T00:25:28.782Z,0.00
2022-10-13T00:26:28.788Z,0.00
2022-10-13T00:27:28.800Z,0.00
2022-10-13T00:28:28.846Z,0.00
2022-10-13T00:29:28.814Z,0.00
2022-10-13T00:30:28.813Z,0.00
2022-10-13T00:31:28.824Z,0.00
2022-10-13T00:32:28.850Z,0.00
2022-10-13T00:33:28.839Z,0.00
2022-10-13T00:34:28.837Z,0.00
2022-10-13T00:35:28.850Z,0.00
2022-10-13T00:36:28.855Z,0.00
2022-10-13T00:37:28.864Z,0.00
2022-10-13T00:38:28.868Z,0.00
2022-10-13T00:39:28.875Z,0.00
2022-10-13T00:40:28.879Z,0.00
2022-10-13T00:41:28.890Z,0.00
2022-10-13T00:42:28.889Z,0.00
2022-10-13T00:43:28.899Z,0.00
2022-10-13T00:44:28.896Z,0.00
2022-10-13T00:45:28.904Z,0.00
2022-10-13T00:46:28.910Z,0.00
2022-10-13T00:47:28.925Z,0.00
2022-10-13T00:48:28.948Z,0.00
2022-10-13T00:49:28.927Z,0.00
2022-10-13T00:50:28.940Z,0.00
2022-10-13T00:51:28.938Z,0.00
2022-10-13T00:52:28.944Z,0.00
2022-10-13T00:53:28.952Z,0.00
2022-10-13T00:54:28.964Z,0.00
2022-10-13T00:55:28.971Z,0.00
2022-10-13T00:56:28.975Z,0.00
2022-10-13T00:57:28.974Z,0.00
2022-10-13T00:58:28.982Z,0.00
2022-10-13T00:59:28.994Z,0.00
2022-10-13T01:00:29.033Z,0.00
2022-10-13T01:01:29.004Z,0.00
2022-10-13T01:02:29.005Z,0.00
2022-10-13T01:03:29.015Z,0.00
2022-10-13T01:04:29.035Z,0.00
2022-10-13T01:05:29.022Z,0.00
2022-10-13T01:06:29.035Z,0.00
2022-10-13T01:07:29.040Z,0.00
2022-10-13T01:08:29.051Z,0.00
2022-10-13T01:09:29.052Z,0.00
2022-10-13T01:10:29.060Z,0.00
2022-10-13T01:11:29.056Z,0.00
2022-10-13T01:12:29.064Z,0.00
2022-10-13T01:13:29.077Z,0.00
2022-10-13T01:14:29.077Z,0.00
2022-10-13T01:15:29.088Z,0.00
2022-10-13T01:16:29.094Z,0.00
2022-10-13T01:17:29.092Z,0.00
2022-10-13T01:18:29.098Z,0.00
2022-10-13T01:19:29.105Z,0.00
2022-10-13T01:20:29.130Z,0.00
2022-10-13T01:21:29.118Z,0.00
2022-10-13T01:22:29.124Z,0.00
2022-10-13T01:23:29.131Z,0.00
2022-10-13T01:24:29.141Z,0.00
2022-10-13T01:25:29.149Z,0.00
2022-10-13T01:26:29.152Z,0.00
2022-10-13T01:27:29.158Z,0.00
2022-10-13T01:28:29.219Z,0.00
2022-10-13T01:29:29.168Z,0.00
2022-10-13T01:30:29.175Z,0.00
2022-10-13T01:31:29.183Z,0.00
2022-10-13T01:32:29.181Z,0.00
2022-10-13T01:33:29.186Z,0.00
2022-10-13T01:34:29.201Z,0.00
2022-10-13T01:35:29.204Z,0.00
2022-10-13T01:36:29.223Z,0.00
2022-10-13T01:37:29.209Z,0.00
2022-10-13T01:38:29.225Z,0.00
2022-10-13T01:39:29.227Z,0.00
2022-10-13T01:40:29.228Z,0.00
2022-10-13T01:41:29.239Z,0.00
2022-10-13T01:42:29.240Z,0.00
2022-10-13T01:43:29.244Z,0.00
2022-10-13T01:44:29.251Z,0.00
2022-10-13T01:45:29.266Z,0.00
2022-10-13T01:46:29.263Z,0.00
2022-10-13T01:47:29.267Z,0.00
2022-10-13T01:48:29.284Z,0.00
2022-10-13T01:49:29.286Z,0.00
2022-10-13T01:50:29.292Z,0.00
2022-10-13T01:51:29.298Z,0.00
2022-10-13T01:52:29.324Z,0.00
2022-10-13T01:53:29.312Z,0.00
2022-10-13T01:54:29.315Z,0.00
2022-10-13T01:55:29.314Z,0.00
2022-10-13T01:56:29.328Z,0.00
2022-10-13T01:57:29.335Z,0.00
2022-10-13T01:58:29.338Z,0.00
2022-10-13T01:59:29.345Z,0.00
2022-10-13T02:00:29.385Z,0.00
2022-10-13T02:01:29.358Z,0.00
2022-10-13T02:02:29.362Z,0.00
2022-10-13T02:03:29.368Z,0.00
2022-10-13T02:04:29.366Z,0.00
2022-10-13T02:05:29.373Z,0.00
2022-10-13T02:06:29.389Z,0.00
2022-10-13T02:07:29.392Z,0.00
2022-10-13T02:08:29.410Z,0.00
2022-10-13T02:09:29.393Z,0.00
2022-10-13T02:10:29.409Z,0.00
2022-10-13T02:11:29.407Z,0.00
2022-10-13T02:12:29.420Z,0.00
2022-10-13T02:13:29.424Z,0.00
2022-10-13T02:14:29.433Z,0.00
2022-10-13T02:15:29.435Z,0.00
2022-10-13T02:16:29.443Z,0.00
2022-10-13T02:17:29.447Z,0.00
2022-10-13T02:18:29.455Z,0.00
2022-10-13T02:19:29.457Z,0.00
2022-10-13T02:20:29.468Z,0.00
2022-10-13T02:21:29.461Z,0.00
2022-10-13T02:22:29.476Z,0.00
2022-10-13T02:23:29.471Z,0.00
2022-10-13T02:24:29.499Z,0.00
2022-10-13T02:25:29.493Z,0.00
2022-10-13T02:26:29.496Z,0.00
2022-10-13T02:27:29.496Z,0.00
2022-10-13T02:28:29.583Z,0.00
2022-10-13T02:29:29.514Z,0.00
2022-10-13T02:30:29.520Z,0.00
2022-10-13T02:31:29.525Z,0.00
2022-10-13T02:32:29.524Z,0.00
2022-10-13T02:33:29.538Z,0.00
2022-10-13T02:34:29.545Z,0.00
2022-10-13T02:35:29.540Z,0.00
2022-10-13T02:36:29.553Z,0.00
2022-10-13T02:37:29.560Z,0.00
2022-10-13T02:38:29.557Z,0.00
2022-10-13T02:39:29.573Z,0.00
2022-10-13T02:40:29.588Z,0.00
2022-10-13T02:41:29.573Z,0.00
2022-10-13T02:42:29.589Z,0.00
2022-10-13T02:43:29.592Z,0.00
2022-10-13T02:44:29.591Z,0.00
2022-10-13T02:45:29.605Z,0.00
2022-10-13T02:46:29.605Z,0.00
2022-10-13T02:47:29.607Z,0.00
2022-10-13T02:48:29.615Z,0.00
2022-10-13T02:49:29.629Z,0.00
2022-10-13T02:50:29.640Z,0.00
2022-10-13T02:51:29.637Z,0.00
2022-10-13T02:52:29.647Z,0.00
2022-10-13T02:53:29.642Z,0.00
2022-10-13T02:54:29.650Z,0.00
2022-10-13T02:55:29.662Z,0.00
2022-10-13T02:56:29.681Z,0.00
2022-10-13T02:57:29.675Z,0.00
2022-10-13T02:58:29.673Z,0.00
2022-10-13T02:59:29.685Z,0.00
2022-10-13T03:00:29.787Z,0.00
2022-10-13T03:01:29.698Z,0.00
2022-10-13T03:35:55.087Z,0.00
2022-10-13T03:36:55.074Z,0.00
2022-10-13T03:37:55.080Z,0.00
2022-10-13T03:38:55.094Z,0.00
2022-10-13T03:39:55.095Z,0.00
2022-10-13T03:40:55.102Z,0.00
2022-10-13T03:42:52.680Z,0.00
2022-10-13T03:43:52.686Z,0.00
2022-10-13T03:44:56.343Z,0.00
2022-10-13T03:45:52.695Z,0.00
2022-10-13T03:46:52.699Z,0.00
2022-10-13T03:47:52.701Z,0.00
2022-10-13T03:48:52.711Z,0.00
2022-10-13T03:49:52.709Z,0.00
2022-10-13T03:50:52.716Z,0.00
2022-10-13T03:51:52.749Z,0.00
2022-10-13T03:52:52.727Z,0.00
2022-10-13T03:53:52.749Z,0.00
2022-10-13T03:54:52.738Z,0.00
2022-10-13T03:55:52.751Z,0.00
2022-10-13T03:56:52.756Z,0.00
2022-10-13T03:57:52.766Z,0.00
2022-10-13T03:58:52.766Z,0.00
2022-10-13T03:59:52.767Z,0.00
2022-10-13T04:00:52.771Z,0.00
2022-10-13T04:01:52.809Z,0.00
2022-10-13T04:02:52.781Z,0.00
2022-10-13T04:03:52.790Z,0.00
2022-10-13T04:04:52.799Z,0.00
2022-10-13T04:05:52.803Z,0.00
2022-10-13T04:06:52.803Z,0.00
2022-10-13T04:07:52.838Z,0.00
2022-10-13T04:08:52.815Z,0.00
2022-10-13T04:09:52.826Z,0.00
2022-10-13T04:10:52.824Z,0.00
2022-10-13T04:11:52.830Z,0.00
2022-10-13T04:12:52.833Z,0.00
2022-10-13T04:13:52.846Z,0.00
2022-10-13T04:14:52.851Z,0.00
2022-10-13T04:15:52.859Z,0.00
2022-10-13T04:16:52.863Z,0.00
2022-10-13T04:17:52.869Z,0.00
2022-10-13T04:18:52.873Z,0.00
2022-10-13T04:19:52.881Z,0.00
2022-10-13T04:20:52.876Z,0.00
2022-10-13T04:21:52.891Z,0.00
2022-10-13T04:22:52.889Z,0.00
2022-10-13T04:23:52.914Z,0.00
2022-10-13T04:24:52.906Z,0.00
2022-10-13T04:25:52.910Z,0.00
2022-10-13T04:26:52.909Z,0.00
2022-10-13T04:27:52.913Z,0.00
2022-10-13T04:28:53.007Z,0.00
2022-10-13T04:29:52.934Z,0.00
2022-10-13T04:30:52.938Z,0.00
2022-10-13T04:31:52.935Z,0.00
2022-10-13T04:32:52.949Z,0.00
2022-10-13T04:33:52.946Z,0.00
2022-10-13T04:34:52.962Z,0.00
2022-10-13T04:35:52.964Z,0.00
2022-10-13T04:36:52.963Z,0.00
2022-10-13T04:37:52.974Z,0.00
2022-10-13T04:38:52.974Z,0.00
2022-10-13T04:39:52.998Z,0.00
2022-10-13T04:40:52.993Z,0.00
2022-10-13T04:41:52.999Z,0.00
2022-10-13T04:42:53.003Z,0.00
2022-10-13T04:43:53.003Z,0.00
2022-10-13T04:44:53.005Z,0.00
2022-10-13T04:45:53.010Z,0.00
2022-10-13T04:46:53.019Z,0.00
2022-10-13T04:47:53.022Z,0.00
2022-10-13T04:48:53.035Z,0.00
2022-10-13T04:49:53.031Z,0.00
2022-10-13T04:50:53.039Z,0.00
2022-10-13T04:51:53.056Z,0.00
2022-10-13T04:52:53.057Z,0.00
2022-10-13T04:53:53.060Z,0.00
2022-10-13T04:54:53.070Z,0.00
2022-10-13T04:55:53.093Z,0.00
2022-10-13T04:56:53.071Z,0.00
2022-10-13T04:57:53.076Z,0.00
2022-10-13T04:58:53.088Z,0.00
2022-10-13T04:59:53.087Z,4.00
2022-10-13T05:00:53.188Z,4.00
2022-10-13T05:01:53.104Z,0.00
2022-10-13T05:02:53.111Z,0.00
2022-10-13T05:03:53.116Z,4.00
2022-10-13T05:04:53.114Z,0.00
2022-10-13T05:05:53.120Z,4.00
2022-10-13T05:07:16.555Z,4.00
2022-10-13T05:07:53.130Z,4.00
2022-10-13T05:08:53.136Z,8.00
2022-10-13T05:09:53.147Z,8.00
2022-10-13T05:10:53.153Z,4.00
2022-10-13T05:11:53.179Z,8.00
2022-10-13T05:12:53.159Z,12.00
2022-10-13T05:13:53.168Z,12.00
2022-10-13T05:14:53.169Z,12.00
2022-10-13T05:15:53.184Z,16.00
2022-10-13T05:17:40.731Z,24.00
2022-10-13T05:18:40.741Z,28.00
2022-10-13T05:19:40.741Z,32.00
2022-10-13T05:20:40.752Z,36.00
2022-10-13T05:21:40.758Z,44.00
2022-10-13T05:22:40.755Z,48.00
2022-10-13T05:23:40.767Z,60.00
2022-10-13T05:24:40.772Z,72.00
2022-10-13T05:25:40.776Z,88.00
2022-10-13T05:26:40.775Z,104.00
2022-10-13T05:27:40.859Z,124.00
2022-10-13T05:28:40.865Z,148.00
2022-10-13T05:29:40.801Z,168.00
2022-10-13T05:30:40.797Z,192.00
2022-10-13T05:31:40.804Z,216.00
2022-10-13T05:32:40.817Z,232.00
2022-10-13T05:33:40.815Z,252.00
2022-10-13T05:34:40.827Z,272.00
2022-10-13T05:35:40.828Z,292.00
2022-10-13T05:36:40.829Z,316.00
2022-10-13T05:37:40.845Z,340.00
2022-10-13T05:38:40.855Z,364.00
2022-10-13T05:39:40.848Z,384.00
2022-10-13T05:40:40.860Z,404.00
2022-10-13T05:41:40.859Z,428.00
2022-10-13T05:42:40.871Z,452.00
2022-10-13T05:43:40.893Z,488.00
2022-10-13T05:44:40.875Z,528.00
2022-10-13T05:45:40.885Z,564.00
2022-10-13T05:46:40.884Z,608.00
2022-10-13T05:47:40.888Z,656.00
2022-10-13T05:48:40.899Z,704.00
2022-10-13T05:49:40.907Z,760.00
2022-10-13T05:50:40.911Z,824.00
2022-10-13T05:51:40.919Z,912.00
2022-10-13T05:52:40.922Z,1012.00
2022-10-13T05:53:43.506Z,1100.00
2022-10-13T05:54:40.933Z,1164.00
2022-10-13T05:55:40.939Z,1216.00
2022-10-13T05:56:40.943Z,1256.00
2022-10-13T05:57:40.957Z,1312.00
2022-10-13T05:58:40.948Z,1376.00
2022-10-13T05:59:40.974Z,1428.00
2022-10-13T06:00:40.958Z,1480.00
2022-10-13T06:01:41.022Z,1516.00
2022-10-13T06:02:40.970Z,1536.00
2022-10-13T06:03:40.977Z,1548.00
2022-10-13T06:04:40.988Z,1560.00
2022-10-13T06:05:40.988Z,1576.00
2022-10-13T06:06:40.991Z,1588.00
2022-10-13T06:07:40.999Z,1600.00
2022-10-13T06:08:41.012Z,1628.00
2022-10-13T06:09:41.017Z,1656.00
2022-10-13T06:10:41.023Z,1692.00
2022-10-13T06:11:41.028Z,1740.00
2022-10-13T06:12:41.035Z,1792.00
2022-10-13T06:13:41.039Z,1844.00
2022-10-13T06:14:41.045Z,1892.00
2022-10-13T06:15:41.066Z,1940.00
2022-10-13T06:16:41.057Z,1984.00
2022-10-13T06:17:41.054Z,2024.00
2022-10-13T06:18:41.060Z,2080.00
2022-10-13T06:19:41.072Z,2136.00
2022-10-13T06:20:41.073Z,2180.00
2022-10-13T06:21:41.076Z,2216.00
2022-10-13T06:22:41.091Z,2260.00
2022-10-13T06:23:41.095Z,2340.00
2022-10-13T06:24:41.099Z,2416.00
2022-10-13T06:25:41.109Z,2500.00
2022-10-13T06:26:41.103Z,2612.00
2022-10-13T06:27:41.118Z,2732.00
2022-10-13T06:28:41.169Z,2848.00
2022-10-13T06:29:41.122Z,2936.00
2022-10-13T06:30:41.133Z,2976.00
2022-10-13T06:31:41.161Z,2988.00
2022-10-13T06:32:41.138Z,2968.00
2022-10-13T06:33:41.154Z,2964.00
2022-10-13T06:34:41.148Z,2972.00
2022-10-13T06:35:41.158Z,2952.00
2022-10-13T06:36:41.160Z,2912.00
2022-10-13T06:37:41.169Z,2852.00
2022-10-13T06:38:41.171Z,2808.00
2022-10-13T06:39:41.185Z,2768.00
2022-10-13T06:40:41.191Z,2736.00
2022-10-13T06:41:41.191Z,2700.00
2022-10-13T06:42:41.197Z,2664.00
2022-10-13T06:43:41.211Z,2624.00
2022-10-13T06:44:41.217Z,2572.00
2022-10-13T06:45:41.220Z,2528.00
2022-10-13T06:46:41.228Z,2492.00
2022-10-13T06:47:41.246Z,2476.00
2022-10-13T06:48:41.231Z,2484.00
2022-10-13T06:49:41.244Z,2516.00
2022-10-13T06:50:42.969Z,2564.00
2022-10-13T06:51:41.254Z,2628.00
2022-10-13T06:52:41.262Z,2700.00
2022-10-13T06:53:41.266Z,2776.00
2022-10-13T06:54:41.265Z,2852.00
2022-10-13T06:55:41.278Z,2920.00
2022-10-13T06:56:41.289Z,2988.00
2022-10-13T06:57:41.289Z,3036.00
2022-10-13T06:58:41.297Z,3096.00
2022-10-13T06:59:41.295Z,3144.00
2022-10-13T07:00:41.356Z,3188.00
2022-10-13T07:01:41.815Z,3224.00
2022-10-13T07:02:41.314Z,3264.00
2022-10-13T07:03:41.336Z,3296.00
2022-10-13T07:04:41.323Z,3304.00
2022-10-13T07:05:41.336Z,3296.00
2022-10-13T07:06:41.341Z,3288.00
2022-10-13T07:07:41.347Z,3288.00
2022-10-13T07:08:41.352Z,3304.00
2022-10-13T07:09:41.360Z,3340.00
2022-10-13T07:10:41.363Z,3440.00
2022-10-13T07:11:41.372Z,3604.00
2022-10-13T07:12:41.383Z,3832.00
2022-10-13T07:13:45.315Z,4088.00
2022-10-13T07:14:43.718Z,4344.00
2022-10-13T07:15:41.397Z,4576.00
2022-10-13T07:16:41.403Z,4808.00
2022-10-13T07:17:41.406Z,5016.00
2022-10-13T07:18:41.406Z,5216.00
2022-10-13T07:19:41.438Z,5420.00
2022-10-13T07:20:41.419Z,5620.00
2022-10-13T07:21:41.431Z,5796.00
2022-10-13T07:22:41.439Z,5976.00
2022-10-13T07:23:41.441Z,6144.00
2022-10-13T07:24:41.450Z,6300.00
2022-10-13T07:25:41.447Z,6428.00
2022-10-13T07:26:41.457Z,6508.00
2022-10-13T07:27:41.459Z,6556.00
2022-10-13T07:28:41.552Z,6608.00
2022-10-13T07:29:41.472Z,6680.00
2022-10-13T07:30:41.487Z,6748.00
2022-10-13T07:31:41.491Z,6828.00
2022-10-13T07:32:41.493Z,6984.00
2022-10-13T07:33:41.505Z,7248.00
2022-10-13T07:34:41.501Z,8036.00
2022-10-13T07:35:41.546Z,8660.00
2022-10-13T07:36:41.515Z,8456.00
2022-10-13T07:37:41.523Z,8120.00
2022-10-13T07:38:41.526Z,9328.00
2022-10-13T07:39:41.544Z,8900.00
2022-10-13T07:40:41.548Z,8916.00
2022-10-13T07:41:41.560Z,9180.00
2022-10-13T07:42:41.560Z,9456.00
2022-10-13T07:43:41.567Z,9680.00
2022-10-13T07:44:41.576Z,9668.00
2022-10-13T07:45:41.581Z,9556.00
2022-10-13T07:46:41.578Z,9388.00
2022-10-13T07:47:41.594Z,9160.00
2022-10-13T07:48:41.594Z,8980.00
2022-10-13T07:49:41.601Z,8944.00
2022-10-13T07:50:41.616Z,9180.00
2022-10-13T07:51:41.642Z,9704.00
2022-10-13T07:52:41.622Z,9784.00
2022-10-13T07:53:41.631Z,8396.00
2022-10-13T07:54:41.634Z,7492.00
2022-10-13T07:55:41.647Z,7280.00
2022-10-13T07:56:41.655Z,7300.00
2022-10-13T07:57:41.655Z,7324.00
2022-10-13T07:58:41.670Z,7332.00
2022-10-13T07:59:41.669Z,7472.00
2022-10-13T08:00:41.678Z,7636.00
2022-10-13T08:01:41.744Z,7804.00
2022-10-13T08:02:41.696Z,7980.00
2022-10-13T08:03:44.207Z,8164.00
2022-10-13T08:04:41.705Z,8372.00
2022-10-13T08:05:41.713Z,8600.00
2022-10-13T08:06:41.780Z,8840.00
2022-10-13T08:07:41.743Z,9072.00
2022-10-13T08:08:41.737Z,9248.00
2022-10-13T08:09:41.741Z,9420.00
2022-10-13T08:10:41.792Z,9428.00
2022-10-13T08:11:41.751Z,9452.00
2022-10-13T08:12:41.761Z,9448.00
2022-10-13T08:13:41.770Z,9452.00
2022-10-13T08:14:41.923Z,9452.00
2022-10-13T08:15:41.782Z,9528.00
2022-10-13T08:16:41.794Z,9580.00
2022-10-13T08:17:41.803Z,9668.00
2022-10-13T08:18:41.811Z,9544.00
2022-10-13T08:19:41.817Z,9412.00
2022-10-13T08:20:43.938Z,9364.00
2022-10-13T08:21:58.838Z,9344.00
2022-10-13T08:22:41.833Z,9316.00
2022-10-13T08:23:41.859Z,9364.00
2022-10-13T08:24:41.855Z,9512.00
2022-10-13T08:25:41.862Z,9748.00
2022-10-13T08:26:41.862Z,10108.00
2022-10-13T08:27:51.140Z,10572.00
2022-10-13T08:28:48.604Z,10920.00
2022-10-13T08:29:41.914Z,11968.00
2022-10-13T08:30:41.944Z,12540.00
2022-10-13T08:31:42.145Z,10668.00
2022-10-13T08:32:41.903Z,10708.00
2022-10-13T08:33:41.922Z,10860.00
2022-10-13T08:34:41.918Z,11032.00
2022-10-13T08:35:41.926Z,11212.00
2022-10-13T08:36:41.940Z,11400.00
2022-10-13T08:37:41.949Z,11648.00
2022-10-13T08:38:41.955Z,11916.00
2022-10-13T08:39:41.988Z,12340.00
2022-10-13T08:40:41.970Z,12596.00
2022-10-13T08:41:41.971Z,12672.00
2022-10-13T08:42:41.980Z,12880.00
2022-10-13T08:44:13.412Z,12944.00
2022-10-13T08:45:42.477Z,13060.00
2022-10-13T08:46:42.009Z,13524.00
2022-10-13T08:47:42.027Z,13868.00
2022-10-13T08:48:42.032Z,15232.00
2022-10-13T08:49:42.033Z,15904.00
2022-10-13T08:50:42.040Z,16480.00
2022-10-13T08:51:42.050Z,18112.00
2022-10-13T08:52:42.063Z,19968.00
2022-10-13T08:53:42.069Z,22144.00
2022-10-13T08:54:42.070Z,22016.00
2022-10-13T08:55:42.099Z,19808.00
2022-10-13T08:56:42.095Z,19392.00
2022-10-13T08:57:42.101Z,19712.00
2022-10-13T08:58:42.104Z,17792.00
2022-10-13T08:59:42.110Z,17728.00
2022-10-13T09:00:42.121Z,17728.00
2022-10-13T09:01:42.183Z,17440.00
2022-10-13T09:04:22.255Z,18272.00
2022-10-13T09:05:22.271Z,19008.00
2022-10-13T09:06:22.271Z,20032.00
2022-10-13T09:07:22.767Z,20832.00
2022-10-13T09:08:22.297Z,21184.00
2022-10-13T09:09:22.305Z,21440.00
2022-10-13T09:10:22.306Z,21824.00
2022-10-13T09:11:22.347Z,20704.00
2022-10-13T09:12:22.620Z,19232.00
2022-10-13T09:13:22.333Z,19968.00
2022-10-13T09:14:22.349Z,17952.00
2022-10-13T09:15:22.360Z,16736.00
2022-10-13T09:16:22.367Z,16352.00
2022-10-13T09:37:58.962Z,17824.00
2022-10-13T09:38:58.944Z,19488.00
2022-10-13T09:52:28.376Z,22624.00
2022-10-13T09:53:28.398Z,22080.00
2022-10-13T09:54:28.377Z,20352.00
2022-10-13T09:55:32.215Z,22336.00
2022-10-13T09:56:28.405Z,25504.00
2022-10-13T09:57:28.420Z,23616.00
2022-10-13T09:58:28.432Z,27904.00
2022-10-13T09:59:28.438Z,26528.00
2022-10-13T10:00:28.445Z,22880.00
2022-10-13T10:01:28.871Z,22464.00
2022-10-13T10:02:28.891Z,24736.00
2022-10-13T10:03:28.495Z,32704.00
2022-10-13T10:04:28.542Z,38944.00
2022-10-13T10:06:41.108Z,41888.00
2022-10-13T10:18:48.801Z,46144.00
2022-10-13T10:19:48.586Z,50368.00
2022-10-13T10:20:48.593Z,54368.00
2022-10-13T11:02:24.468Z,34944.00
2022-10-13T11:03:24.466Z,34880.00
2022-10-13T11:43:02.729Z,67232.00
2022-10-13T11:44:00.112Z,66528.00
2022-10-13T11:52:35.968Z,69376.00
2022-10-13T11:53:35.993Z,62144.00
2022-10-13T11:54:36.001Z,65536.00
2022-10-13T11:55:36.025Z,67936.00
2022-10-13T11:56:39.537Z,66592.00
2022-10-13T11:57:36.061Z,24096.00
2022-10-13T11:58:36.141Z,59936.00
2022-10-13T12:02:01.967Z,41376.00
2022-10-13T12:03:02.031Z,65440.00
2022-10-13T12:04:02.003Z,63232.00
2022-10-13T12:05:02.022Z,66368.00
2022-10-13T12:06:02.039Z,66368.00
2022-10-13T12:07:02.070Z,67264.00
2022-10-13T12:08:02.075Z,25824.00
2022-10-13T12:09:02.095Z,28736.00
2022-10-13T12:10:02.114Z,67360.00
2022-10-13T12:11:02.138Z,67008.00
2022-10-13T12:12:02.158Z,32704.00
2022-10-13T12:13:02.176Z,15692.00
2022-10-13T12:14:02.219Z,33152.00
2022-10-13T12:15:05.950Z,59552.00
2022-10-13T12:16:02.231Z,45056.00
2022-10-13T12:17:02.241Z,61920.00
2022-10-13T12:18:02.260Z,60800.00
2022-10-13T12:19:02.277Z,60448.00
2022-10-13T12:20:02.298Z,62368.00
2022-10-13T12:21:02.320Z,61024.00
2022-10-13T12:22:02.332Z,59712.00
2022-10-13T12:23:02.357Z,61248.00
2022-10-13T12:24:02.371Z,55520.00
2022-10-13T12:25:02.386Z,61152.00
2022-10-13T12:26:02.414Z,61696.00
2022-10-13T12:27:02.431Z,58112.00
2022-10-13T12:28:02.452Z,54528.00
2022-10-13T12:29:02.463Z,47456.00
2022-10-13T12:30:02.530Z,56992.00
2022-10-13T12:33:15.327Z,58208.00
2022-10-13T13:21:25.164Z,20768.00
2022-10-13T13:22:25.194Z,19104.00
2022-10-13T13:23:25.175Z,15004.00
2022-10-13T13:24:35.957Z,13936.00
2022-10-13T13:25:25.212Z,14668.00
2022-10-13T13:26:25.227Z,16736.00
2022-10-13T13:27:25.243Z,16544.00
2022-10-13T13:28:25.281Z,39360.00
2022-10-13T13:29:25.267Z,40768.00
2022-10-13T15:21:20.230Z,3856.00
2022-10-13T15:22:20.490Z,3812.00
2022-10-13T15:23:20.228Z,3776.00
2022-10-13T15:24:20.235Z,3740.00
2022-10-13T15:25:20.256Z,3696.00
2022-10-13T15:26:20.263Z,3632.00
2022-10-13T15:27:20.275Z,3560.00
2022-10-13T15:28:20.311Z,3484.00
2022-10-13T15:29:20.288Z,3412.00
2022-10-13T15:30:20.298Z,3348.00
2022-10-13T15:31:20.312Z,3292.00
2022-10-13T15:32:20.937Z,3240.00
2022-10-13T15:33:20.336Z,3200.00
2022-10-13T15:34:20.346Z,3168.00
2022-10-13T15:35:20.358Z,3128.00
2022-10-13T15:36:20.359Z,3096.00
2022-10-13T15:37:20.397Z,3052.00
2022-10-13T15:42:29.564Z,2472.00
2022-10-13T15:43:29.573Z,2336.00
2022-10-13T15:44:36.512Z,2216.00
2022-10-13T15:45:29.593Z,2104.00
2022-10-13T15:46:29.605Z,1988.00
2022-10-13T15:47:29.608Z,1872.00
2022-10-13T15:48:29.635Z,1736.00
2022-10-13T15:49:29.628Z,1612.00
2022-10-13T15:50:29.639Z,1476.00
2022-10-13T15:51:29.647Z,1348.00
2022-10-13T15:52:34.473Z,1232.00
2022-10-13T15:53:29.676Z,1116.00
2022-10-13T15:54:29.680Z,1004.00
2022-10-13T15:55:29.699Z,900.00
2022-10-13T15:56:29.707Z,812.00
2022-10-13T15:57:29.720Z,740.00
2022-10-13T15:58:29.729Z,692.00
2022-10-13T15:59:29.740Z,644.00
2022-10-13T16:00:29.868Z,604.00
2022-10-13T16:01:29.762Z,568.00
2022-10-13T16:02:29.768Z,532.00
2022-10-13T16:03:29.776Z,500.00
2022-10-13T16:04:34.791Z,480.00
2022-10-13T16:05:29.801Z,464.00
2022-10-13T16:06:29.803Z,452.00
2022-10-13T16:07:29.822Z,444.00
2022-10-13T16:08:29.845Z,432.00
2022-10-13T16:09:29.835Z,420.00
2022-10-13T16:10:29.851Z,404.00
2022-10-13T16:11:29.861Z,392.00
2022-10-13T16:12:29.872Z,376.00
2022-10-13T16:13:29.881Z,360.00
2022-10-13T16:14:29.893Z,348.00
2022-10-13T16:15:29.894Z,332.00
2022-10-13T16:16:29.906Z,320.00
2022-10-13T16:17:29.917Z,304.00
2022-10-13T16:18:29.927Z,280.00
2022-10-13T16:19:29.935Z,256.00
2022-10-13T16:20:29.954Z,232.00
2022-10-13T16:21:29.955Z,208.00
2022-10-13T16:22:29.967Z,184.00
2022-10-13T16:23:29.974Z,164.00
2022-10-13T16:24:30.018Z,148.00
2022-10-13T16:25:30.003Z,128.00
2022-10-13T16:26:30.014Z,112.00
2022-10-13T16:27:30.022Z,100.00
2022-10-13T16:28:30.123Z,92.00
2022-10-13T16:29:30.046Z,84.00
2022-10-13T16:30:30.045Z,76.00
2022-10-13T16:31:30.056Z,68.00
2022-10-13T16:32:30.073Z,60.00
2022-10-13T16:33:30.077Z,52.00
2022-10-13T16:34:30.086Z,44.00
2022-10-13T16:35:30.108Z,36.00
2022-10-13T16:36:30.116Z,36.00
2022-10-13T16:37:30.117Z,28.00
2022-10-13T16:38:30.125Z,28.00
2022-10-13T16:39:30.138Z,24.00
2022-10-13T16:40:30.171Z,24.00
2022-10-13T16:41:30.165Z,20.00
2022-10-13T16:42:30.165Z,16.00
2022-10-13T16:43:30.183Z,16.00
2022-10-13T16:44:30.184Z,12.00
2022-10-13T16:45:47.853Z,8.00
2022-10-13T16:46:30.211Z,8.00
2022-10-13T16:47:30.213Z,4.00
2022-10-13T16:48:30.233Z,8.00
2022-10-13T16:49:30.232Z,4.00
2022-10-13T16:50:30.252Z,0.00
2022-10-13T16:51:30.260Z,4.00
2022-10-13T16:52:30.264Z,0.00
2022-10-13T16:53:30.279Z,4.00
2022-10-13T16:54:30.283Z,0.00
2022-10-13T16:55:30.294Z,0.00
2022-10-13T16:56:30.327Z,0.00
2022-10-13T16:57:30.311Z,0.00
2022-10-13T16:58:30.320Z,0.00
2022-10-13T16:59:30.340Z,0.00
2022-10-13T17:00:30.415Z,0.00
2022-10-13T17:01:30.351Z,0.00
2022-10-13T17:02:30.366Z,0.00
2022-10-13T17:03:30.375Z,0.00
2022-10-13T17:04:30.380Z,0.00
2022-10-13T17:05:30.387Z,0.00
2022-10-13T17:06:30.406Z,0.00
2022-10-13T17:07:30.424Z,0.00
2022-10-13T17:08:30.427Z,0.00
2022-10-13T17:09:30.426Z,0.00
2022-10-13T17:10:30.437Z,0.00
2022-10-13T17:11:30.446Z,0.00
2022-10-13T17:12:30.485Z,0.00
2022-10-13T17:13:30.472Z,0.00
2022-10-13T17:14:30.483Z,0.00
2022-10-13T17:15:30.490Z,0.00
2022-10-13T17:16:30.496Z,0.00
2022-10-13T17:17:30.503Z,0.00
2022-10-13T17:18:30.519Z,0.00
2022-10-13T17:19:30.525Z,0.00
2022-10-13T17:20:30.541Z,0.00
2022-10-13T17:21:30.540Z,0.00
2022-10-13T17:22:30.564Z,0.00
2022-10-13T17:23:30.567Z,0.00
2022-10-13T17:27:51.568Z,0.00
2022-10-13T17:36:28.768Z,0.00
2022-10-13T19:05:17.477Z,0.00
2022-10-13T19:06:17.461Z,0.00
2022-10-13T19:07:17.487Z,0.00
2022-10-13T19:08:17.479Z,0.00
2022-10-13T19:09:17.603Z,0.00
2022-10-13T19:10:17.488Z,0.00
2022-10-13T19:11:17.496Z,0.00
2022-10-13T19:12:17.506Z,0.00
2022-10-13T19:13:17.518Z,0.00
2022-10-13T19:14:17.529Z,0.00
2022-10-13T19:15:17.530Z,0.00
2022-10-13T19:16:17.542Z,0.00
2022-10-13T19:17:17.797Z,0.00
2022-10-13T19:18:17.553Z,0.00
2022-10-13T19:19:17.564Z,0.00
2022-10-13T19:20:17.570Z,0.00
2022-10-13T19:21:17.604Z,0.00
2022-10-13T19:22:17.592Z,0.00
2022-10-13T19:23:17.602Z,0.00
2022-10-13T19:24:17.609Z,0.00
2022-10-13T19:25:17.618Z,0.00
2022-10-13T19:26:17.625Z,0.00
2022-10-13T19:27:17.860Z,0.00
2022-10-13T19:28:17.747Z,0.00
2022-10-13T19:29:17.654Z,0.00
2022-10-13T19:30:17.658Z,0.00
2022-10-13T19:31:17.660Z,0.00
2022-10-13T19:32:17.666Z,0.00
2022-10-13T19:33:17.676Z,0.00
2022-10-13T19:34:17.687Z,0.00
2022-10-13T19:35:17.701Z,0.00
2022-10-13T19:36:17.701Z,0.00
2022-10-13T19:37:17.797Z,0.00
2022-10-13T19:38:17.717Z,0.00
2022-10-13T19:39:17.734Z,0.00
2022-10-13T19:40:17.739Z,0.00
2022-10-13T19:41:17.750Z,0.00
2022-10-13T19:42:17.750Z,0.00
2022-10-13T19:43:17.757Z,0.00
2022-10-13T19:44:17.774Z,0.00
2022-10-13T19:45:17.782Z,0.00
2022-10-13T19:46:17.783Z,0.00
2022-10-13T19:47:18.117Z,0.00
2022-10-13T19:48:17.799Z,0.00
2022-10-13T19:49:17.808Z,0.00
2022-10-13T19:50:17.817Z,0.00
2022-10-13T19:51:17.824Z,0.00
2022-10-13T19:52:17.832Z,0.00
2022-10-13T19:53:17.862Z,0.00
2022-10-13T19:54:17.849Z,0.00
2022-10-13T19:55:17.865Z,0.00